sensor_id;sensor_type;location;lat;lon;timestamp;temperature;humidity
41469;DHT22;27206;47.032;15.484;2023-04-24T00:00:51;9.60;1.00
41469;DHT22;27206;47.032;15.484;2023-04-24T00:03:17;9.60;1.00
41469;DHT22;27206;47.032;15.484;2023-04-24T00:05:46;9.50;1.00
41469;DHT22;27206;47.032;15.484;2023-04-24T00:08:12;9.40;1.00
41469;DHT22;27206;47.032;15.484;2023-04-24T00:10:37;9.50;1.00
41469;DHT22;27206;47.032;15.484;2023-04-24T00:13:03;9.50;1.00
41469;DHT22;27206;47.032;15.484;2023-04-24T00:15:29;9.50;1.00
41469;DHT22;27206;47.032;15.484;2023-04-24T00:17:55;9.50;1.00
41469;DHT22;27206;47.032;15.484;2023-04-24T00:20:20;9.60;1.00
41469;DHT22;27206;47.032;15.484;2023-04-24T00:22:46;9.60;1.00
41469;DHT22;27206;47.032;15.484;2023-04-24T00:25:12;9.60;1.00
41469;DHT22;27206;47.032;15.484;2023-04-24T00:27:37;9.60;1.00
41469;DHT22;27206;47.032;15.484;2023-04-24T00:30:04;9.50;1.00
41469;DHT22;27206;47.032;15.484;2023-04-24T00:32:30;9.40;1.00
41469;DHT22;27206;47.032;15.484;2023-04-24T00:34:56;9.40;1.00
41469;DHT22;27206;47.032;15.484;2023-04-24T00:37:21;9.40;1.00
41469;DHT22;27206;47.032;15.484;2023-04-24T00:39:47;9.50;1.00
41469;DHT22;27206;47.032;15.484;2023-04-24T00:42:12;9.50;1.00
41469;DHT22;27206;47.032;15.484;2023-04-24T00:44:38;9.50;1.00
41469;DHT22;27206;47.032;15.484;2023-04-24T00:47:04;9.50;1.00
41469;DHT22;27206;47.032;15.484;2023-04-24T00:49:30;9.40;1.00
41469;DHT22;27206;47.032;15.484;2023-04-24T00:51:56;9.50;1.00
41469;DHT22;27206;47.032;15.484;2023-04-24T00:54:22;9.30;1.00
41469;DHT22;27206;47.032;15.484;2023-04-24T00:56:48;9.30;1.00
41469;DHT22;27206;47.032;15.484;2023-04-24T00:59:16;9.20;1.00
41469;DHT22;27206;47.032;15.484;2023-04-24T01:01:43;9.30;1.00
41469;DHT22;27206;47.032;15.484;2023-04-24T01:04:11;9.10;1.00
41469;DHT22;27206;47.032;15.484;2023-04-24T01:06:39;9.10;1.00
41469;DHT22;27206;47.032;15.484;2023-04-24T01:09:04;9.20;1.00
41469;DHT22;27206;47.032;15.484;2023-04-24T01:11:31;9.20;1.00
41469;DHT22;27206;47.032;15.484;2023-04-24T01:13:56;9.20;1.00
41469;DHT22;27206;47.032;15.484;2023-04-24T01:16:22;9.10;1.00
41469;DHT22;27206;47.032;15.484;2023-04-24T01:18:48;9.00;1.00
41469;DHT22;27206;47.032;15.484;2023-04-24T01:21:15;9.10;1.00
41469;DHT22;27206;47.032;15.484;2023-04-24T01:23:43;9.20;1.00
41469;DHT22;27206;47.032;15.484;2023-04-24T01:26:09;9.10;1.00
41469;DHT22;27206;47.032;15.484;2023-04-24T01:28:35;9.10;1.00
41469;DHT22;27206;47.032;15.484;2023-04-24T01:31:00;9.00;1.00
41469;DHT22;27206;47.032;15.484;2023-04-24T01:33:26;9.00;1.00
41469;DHT22;27206;47.032;15.484;2023-04-24T01:35:52;9.00;1.00
41469;DHT22;27206;47.032;15.484;2023-04-24T01:38:18;9.10;1.00
41469;DHT22;27206;47.032;15.484;2023-04-24T01:40:44;9.00;1.00
41469;DHT22;27206;47.032;15.484;2023-04-24T01:43:10;9.10;1.00
41469;DHT22;27206;47.032;15.484;2023-04-24T01:45:36;9.00;1.00
41469;DHT22;27206;47.032;15.484;2023-04-24T01:48:02;9.00;1.00
41469;DHT22;27206;47.032;15.484;2023-04-24T01:50:28;9.00;1.00
41469;DHT22;27206;47.032;15.484;2023-04-24T01:52:53;8.90;1.00
41469;DHT22;27206;47.032;15.484;2023-04-24T01:55:19;9.00;1.00
41469;DHT22;27206;47.032;15.484;2023-04-24T01:57:45;8.90;1.00
41469;DHT22;27206;47.032;15.484;2023-04-24T02:00:11;8.90;1.00
41469;DHT22;27206;47.032;15.484;2023-04-24T02:02:38;8.90;1.00
41469;DHT22;27206;47.032;15.484;2023-04-24T02:05:06;8.90;1.00
41469;DHT22;27206;47.032;15.484;2023-04-24T02:07:32;8.90;1.00
41469;DHT22;27206;47.032;15.484;2023-04-24T02:09:58;8.90;1.00
41469;DHT22;27206;47.032;15.484;2023-04-24T02:12:24;8.90;1.00
41469;DHT22;27206;47.032;15.484;2023-04-24T02:14:49;8.90;1.00
41469;DHT22;27206;47.032;15.484;2023-04-24T02:17:15;8.80;1.00
41469;DHT22;27206;47.032;15.484;2023-04-24T02:19:41;8.80;1.00
41469;DHT22;27206;47.032;15.484;2023-04-24T02:22:07;8.90;1.00
41469;DHT22;27206;47.032;15.484;2023-04-24T02:24:33;9.00;1.00
41469;DHT22;27206;47.032;15.484;2023-04-24T02:26:59;9.00;1.00
41469;DHT22;27206;47.032;15.484;2023-04-24T02:29:26;9.00;1.00
41469;DHT22;27206;47.032;15.484;2023-04-24T02:31:52;9.00;1.00
41469;DHT22;27206;47.032;15.484;2023-04-24T02:34:17;9.00;1.00
41469;DHT22;27206;47.032;15.484;2023-04-24T02:36:43;8.90;1.00
41469;DHT22;27206;47.032;15.484;2023-04-24T02:39:08;8.90;1.00
41469;DHT22;27206;47.032;15.484;2023-04-24T02:41:34;8.90;1.00
41469;DHT22;27206;47.032;15.484;2023-04-24T02:44:00;8.90;1.00
41469;DHT22;27206;47.032;15.484;2023-04-24T02:46:26;8.90;1.00
41469;DHT22;27206;47.032;15.484;2023-04-24T02:48:52;8.90;1.00
41469;DHT22;27206;47.032;15.484;2023-04-24T02:51:17;8.90;1.00
41469;DHT22;27206;47.032;15.484;2023-04-24T02:53:43;8.90;1.00
41469;DHT22;27206;47.032;15.484;2023-04-24T02:56:09;8.90;1.00
41469;DHT22;27206;47.032;15.484;2023-04-24T02:58:37;9.00;1.00
41469;DHT22;27206;47.032;15.484;2023-04-24T03:01:03;9.00;1.00
41469;DHT22;27206;47.032;15.484;2023-04-24T03:03:29;8.90;1.00
41469;DHT22;27206;47.032;15.484;2023-04-24T03:05:54;8.90;1.00
41469;DHT22;27206;47.032;15.484;2023-04-24T03:08:22;8.90;1.00
41469;DHT22;27206;47.032;15.484;2023-04-24T03:10:48;8.80;1.00
41469;DHT22;27206;47.032;15.484;2023-04-24T03:13:13;8.90;1.00
41469;DHT22;27206;47.032;15.484;2023-04-24T03:15:40;8.80;1.00
41469;DHT22;27206;47.032;15.484;2023-04-24T03:18:06;8.80;1.00
41469;DHT22;27206;47.032;15.484;2023-04-24T03:20:31;8.90;1.00
41469;DHT22;27206;47.032;15.484;2023-04-24T03:22:57;8.80;1.00
41469;DHT22;27206;47.032;15.484;2023-04-24T03:25:22;8.80;1.00
41469;DHT22;27206;47.032;15.484;2023-04-24T03:27:48;8.80;1.00
41469;DHT22;27206;47.032;15.484;2023-04-24T03:30:14;8.70;1.00
41469;DHT22;27206;47.032;15.484;2023-04-24T03:32:39;8.80;1.00
41469;DHT22;27206;47.032;15.484;2023-04-24T03:35:06;8.80;1.00
41469;DHT22;27206;47.032;15.484;2023-04-24T03:37:33;8.90;1.00
41469;DHT22;27206;47.032;15.484;2023-04-24T03:39:59;8.90;1.00
41469;DHT22;27206;47.032;15.484;2023-04-24T03:42:25;8.90;1.00
41469;DHT22;27206;47.032;15.484;2023-04-24T03:44:50;8.80;1.00
41469;DHT22;27206;47.032;15.484;2023-04-24T03:47:16;8.70;1.00
41469;DHT22;27206;47.032;15.484;2023-04-24T03:49:41;8.70;1.00
41469;DHT22;27206;47.032;15.484;2023-04-24T03:52:07;8.70;1.00
41469;DHT22;27206;47.032;15.484;2023-04-24T03:54:33;8.70;1.00
41469;DHT22;27206;47.032;15.484;2023-04-24T03:56:58;8.60;1.00
41469;DHT22;27206;47.032;15.484;2023-04-24T03:59:24;8.60;1.00
41469;DHT22;27206;47.032;15.484;2023-04-24T04:01:50;8.60;1.00
41469;DHT22;27206;47.032;15.484;2023-04-24T04:04:16;8.70;1.00
41469;DHT22;27206;47.032;15.484;2023-04-24T04:06:42;8.80;1.00
41469;DHT22;27206;47.032;15.484;2023-04-24T04:09:09;8.70;1.00
41469;DHT22;27206;47.032;15.484;2023-04-24T04:11:35;8.70;1.00
41469;DHT22;27206;47.032;15.484;2023-04-24T04:14:01;8.70;1.00
41469;DHT22;27206;47.032;15.484;2023-04-24T04:16:27;8.80;1.00
41469;DHT22;27206;47.032;15.484;2023-04-24T04:18:52;8.80;1.00
41469;DHT22;27206;47.032;15.484;2023-04-24T04:21:18;8.80;1.00
41469;DHT22;27206;47.032;15.484;2023-04-24T04:23:43;8.70;1.00
41469;DHT22;27206;47.032;15.484;2023-04-24T04:26:10;8.80;1.00
41469;DHT22;27206;47.032;15.484;2023-04-24T04:28:36;8.90;1.00
41469;DHT22;27206;47.032;15.484;2023-04-24T04:31:03;8.90;1.00
41469;DHT22;27206;47.032;15.484;2023-04-24T04:33:30;8.90;1.00
41469;DHT22;27206;47.032;15.484;2023-04-24T04:35:57;8.90;1.00
41469;DHT22;27206;47.032;15.484;2023-04-24T04:38:23;8.90;1.00
41469;DHT22;27206;47.032;15.484;2023-04-24T04:40:50;9.00;1.00
41469;DHT22;27206;47.032;15.484;2023-04-24T04:43:16;9.00;1.00
41469;DHT22;27206;47.032;15.484;2023-04-24T04:45:42;9.10;1.00
41469;DHT22;27206;47.032;15.484;2023-04-24T04:48:08;9.10;1.00
41469;DHT22;27206;47.032;15.484;2023-04-24T04:50:35;9.10;1.00
41469;DHT22;27206;47.032;15.484;2023-04-24T04:53:01;9.10;1.00
41469;DHT22;27206;47.032;15.484;2023-04-24T04:55:27;9.00;1.00
41469;DHT22;27206;47.032;15.484;2023-04-24T04:57:52;8.90;1.00
41469;DHT22;27206;47.032;15.484;2023-04-24T05:00:18;8.90;1.00
41469;DHT22;27206;47.032;15.484;2023-04-24T05:02:44;9.00;1.00
41469;DHT22;27206;47.032;15.484;2023-04-24T05:05:10;9.10;1.00
41469;DHT22;27206;47.032;15.484;2023-04-24T05:07:36;9.20;1.00
41469;DHT22;27206;47.032;15.484;2023-04-24T05:10:02;9.40;1.00
41469;DHT22;27206;47.032;15.484;2023-04-24T05:12:27;9.40;1.00
41469;DHT22;27206;47.032;15.484;2023-04-24T05:14:53;9.40;1.00
41469;DHT22;27206;47.032;15.484;2023-04-24T05:17:19;9.40;1.00
41469;DHT22;27206;47.032;15.484;2023-04-24T05:19:45;9.50;1.00
41469;DHT22;27206;47.032;15.484;2023-04-24T05:22:11;9.60;1.00
41469;DHT22;27206;47.032;15.484;2023-04-24T05:24:37;9.80;1.00
41469;DHT22;27206;47.032;15.484;2023-04-24T05:27:03;9.90;1.00
41469;DHT22;27206;47.032;15.484;2023-04-24T05:29:32;10.00;1.00
41469;DHT22;27206;47.032;15.484;2023-04-24T05:31:59;10.10;1.00
41469;DHT22;27206;47.032;15.484;2023-04-24T05:34:24;10.10;1.00
41469;DHT22;27206;47.032;15.484;2023-04-24T05:36:50;10.30;1.00
41469;DHT22;27206;47.032;15.484;2023-04-24T05:39:16;10.20;1.00
41469;DHT22;27206;47.032;15.484;2023-04-24T05:41:42;10.20;1.00
41469;DHT22;27206;47.032;15.484;2023-04-24T05:44:07;10.20;1.00
41469;DHT22;27206;47.032;15.484;2023-04-24T05:46:33;10.30;1.00
41469;DHT22;27206;47.032;15.484;2023-04-24T05:48:59;10.40;1.00
41469;DHT22;27206;47.032;15.484;2023-04-24T05:51:25;10.50;1.00
41469;DHT22;27206;47.032;15.484;2023-04-24T05:53:51;10.50;1.00
41469;DHT22;27206;47.032;15.484;2023-04-24T05:56:17;10.60;1.00
41469;DHT22;27206;47.032;15.484;2023-04-24T05:58:43;10.70;1.00
41469;DHT22;27206;47.032;15.484;2023-04-24T06:01:09;10.70;1.00
41469;DHT22;27206;47.032;15.484;2023-04-24T06:03:34;10.80;1.00
41469;DHT22;27206;47.032;15.484;2023-04-24T06:06:00;11.00;1.00
41469;DHT22;27206;47.032;15.484;2023-04-24T06:08:26;10.80;1.00
41469;DHT22;27206;47.032;15.484;2023-04-24T06:10:51;10.70;1.00
41469;DHT22;27206;47.032;15.484;2023-04-24T06:13:17;10.80;1.00
41469;DHT22;27206;47.032;15.484;2023-04-24T06:15:43;10.80;1.00
41469;DHT22;27206;47.032;15.484;2023-04-24T06:18:09;10.90;1.00
41469;DHT22;27206;47.032;15.484;2023-04-24T06:20:38;11.10;1.00
41469;DHT22;27206;47.032;15.484;2023-04-24T06:23:04;11.10;1.00
41469;DHT22;27206;47.032;15.484;2023-04-24T06:25:30;11.00;1.00
41469;DHT22;27206;47.032;15.484;2023-04-24T06:27:56;11.00;1.00
41469;DHT22;27206;47.032;15.484;2023-04-24T06:30:22;11.10;1.00
41469;DHT22;27206;47.032;15.484;2023-04-24T06:32:48;11.30;1.00
41469;DHT22;27206;47.032;15.484;2023-04-24T06:35:14;11.30;1.00
41469;DHT22;27206;47.032;15.484;2023-04-24T06:37:41;11.50;1.00
41469;DHT22;27206;47.032;15.484;2023-04-24T06:40:07;11.60;1.00
41469;DHT22;27206;47.032;15.484;2023-04-24T06:42:32;11.80;1.00
41469;DHT22;27206;47.032;15.484;2023-04-24T06:44:58;11.80;1.00
41469;DHT22;27206;47.032;15.484;2023-04-24T06:47:24;11.90;1.00
41469;DHT22;27206;47.032;15.484;2023-04-24T06:49:50;12.10;1.00
41469;DHT22;27206;47.032;15.484;2023-04-24T06:52:18;12.10;1.00
41469;DHT22;27206;47.032;15.484;2023-04-24T06:54:43;12.10;1.00
41469;DHT22;27206;47.032;15.484;2023-04-24T06:57:09;12.20;1.00
41469;DHT22;27206;47.032;15.484;2023-04-24T06:59:36;12.10;1.00
41469;DHT22;27206;47.032;15.484;2023-04-24T07:02:02;12.20;1.00
41469;DHT22;27206;47.032;15.484;2023-04-24T07:04:28;12.10;1.00
41469;DHT22;27206;47.032;15.484;2023-04-24T07:06:54;12.10;1.00
41469;DHT22;27206;47.032;15.484;2023-04-24T07:09:22;12.30;1.00
41469;DHT22;27206;47.032;15.484;2023-04-24T07:11:49;12.30;1.00
41469;DHT22;27206;47.032;15.484;2023-04-24T07:14:15;12.30;1.00
41469;DHT22;27206;47.032;15.484;2023-04-24T07:16:42;12.20;1.00
41469;DHT22;27206;47.032;15.484;2023-04-24T07:19:07;12.30;1.00
41469;DHT22;27206;47.032;15.484;2023-04-24T07:21:33;12.30;1.00
41469;DHT22;27206;47.032;15.484;2023-04-24T07:23:59;12.30;1.00
41469;DHT22;27206;47.032;15.484;2023-04-24T07:26:26;12.10;1.00
41469;DHT22;27206;47.032;15.484;2023-04-24T07:28:52;12.20;1.00
41469;DHT22;27206;47.032;15.484;2023-04-24T07:31:17;12.10;1.00
41469;DHT22;27206;47.032;15.484;2023-04-24T07:33:43;12.20;1.00
41469;DHT22;27206;47.032;15.484;2023-04-24T07:36:08;12.20;1.00
41469;DHT22;27206;47.032;15.484;2023-04-24T07:38:43;12.10;1.00
41469;DHT22;27206;47.032;15.484;2023-04-24T07:41:09;12.10;1.00
41469;DHT22;27206;47.032;15.484;2023-04-24T07:43:35;12.10;1.00
41469;DHT22;27206;47.032;15.484;2023-04-24T07:46:01;12.10;1.00
41469;DHT22;27206;47.032;15.484;2023-04-24T07:48:26;12.00;1.00
41469;DHT22;27206;47.032;15.484;2023-04-24T07:50:53;12.00;1.00
41469;DHT22;27206;47.032;15.484;2023-04-24T07:53:18;12.00;1.00
41469;DHT22;27206;47.032;15.484;2023-04-24T07:55:44;12.00;1.00
41469;DHT22;27206;47.032;15.484;2023-04-24T07:58:10;12.00;1.00
41469;DHT22;27206;47.032;15.484;2023-04-24T08:00:36;11.90;1.00
41469;DHT22;27206;47.032;15.484;2023-04-24T08:03:01;11.90;1.00
41469;DHT22;27206;47.032;15.484;2023-04-24T08:05:27;11.80;1.00
41469;DHT22;27206;47.032;15.484;2023-04-24T08:07:54;11.80;1.00
41469;DHT22;27206;47.032;15.484;2023-04-24T08:10:21;11.80;1.00
41469;DHT22;27206;47.032;15.484;2023-04-24T08:12:47;11.70;1.00
41469;DHT22;27206;47.032;15.484;2023-04-24T08:15:13;11.60;1.00
41469;DHT22;27206;47.032;15.484;2023-04-24T08:17:39;11.70;1.00
41469;DHT22;27206;47.032;15.484;2023-04-24T08:20:05;11.70;1.00
41469;DHT22;27206;47.032;15.484;2023-04-24T08:22:31;11.70;1.00
41469;DHT22;27206;47.032;15.484;2023-04-24T08:25:00;11.70;1.00
41469;DHT22;27206;47.032;15.484;2023-04-24T08:27:26;11.60;1.00
41469;DHT22;27206;47.032;15.484;2023-04-24T08:29:53;11.50;1.00
41469;DHT22;27206;47.032;15.484;2023-04-24T08:32:19;11.50;1.00
41469;DHT22;27206;47.032;15.484;2023-04-24T08:34:44;11.50;1.00
41469;DHT22;27206;47.032;15.484;2023-04-24T08:37:10;11.50;1.00
41469;DHT22;27206;47.032;15.484;2023-04-24T08:39:37;11.50;1.00
41469;DHT22;27206;47.032;15.484;2023-04-24T08:42:03;11.60;1.00
41469;DHT22;27206;47.032;15.484;2023-04-24T08:44:33;11.60;1.00
41469;DHT22;27206;47.032;15.484;2023-04-24T08:47:00;11.50;1.00
41469;DHT22;27206;47.032;15.484;2023-04-24T08:49:28;11.40;1.00
41469;DHT22;27206;47.032;15.484;2023-04-24T08:51:54;11.40;1.00
41469;DHT22;27206;47.032;15.484;2023-04-24T08:54:20;11.40;1.00
41469;DHT22;27206;47.032;15.484;2023-04-24T08:56:47;11.40;1.00
41469;DHT22;27206;47.032;15.484;2023-04-24T08:59:15;11.40;1.00
41469;DHT22;27206;47.032;15.484;2023-04-24T09:01:41;11.40;1.00
41469;DHT22;27206;47.032;15.484;2023-04-24T09:04:09;11.40;1.00
41469;DHT22;27206;47.032;15.484;2023-04-24T09:06:45;11.50;1.00
41469;DHT22;27206;47.032;15.484;2023-04-24T09:09:11;11.50;1.00
41469;DHT22;27206;47.032;15.484;2023-04-24T09:11:37;11.60;1.00
41469;DHT22;27206;47.032;15.484;2023-04-24T09:14:03;11.60;1.00
41469;DHT22;27206;47.032;15.484;2023-04-24T09:16:29;11.70;1.00
41469;DHT22;27206;47.032;15.484;2023-04-24T09:18:55;11.70;1.00
41469;DHT22;27206;47.032;15.484;2023-04-24T09:21:22;11.60;1.00
41469;DHT22;27206;47.032;15.484;2023-04-24T09:24:00;11.80;1.00
41469;DHT22;27206;47.032;15.484;2023-04-24T09:26:29;11.90;1.00
41469;DHT22;27206;47.032;15.484;2023-04-24T09:28:57;11.80;1.00
41469;DHT22;27206;47.032;15.484;2023-04-24T09:31:23;11.90;1.00
41469;DHT22;27206;47.032;15.484;2023-04-24T09:34:04;12.00;1.00
41469;DHT22;27206;47.032;15.484;2023-04-24T09:36:35;12.10;1.00
41469;DHT22;27206;47.032;15.484;2023-04-24T09:39:11;12.10;1.00
41469;DHT22;27206;47.032;15.484;2023-04-24T09:41:44;12.20;1.00
41469;DHT22;27206;47.032;15.484;2023-04-24T09:46:43;12.20;1.00
41469;DHT22;27206;47.032;15.484;2023-04-24T09:49:10;12.30;1.00
41469;DHT22;27206;47.032;15.484;2023-04-24T09:51:37;12.30;1.00
41469;DHT22;27206;47.032;15.484;2023-04-24T09:54:04;12.40;1.00
41469;DHT22;27206;47.032;15.484;2023-04-24T09:56:36;12.40;1.00
41469;DHT22;27206;47.032;15.484;2023-04-24T09:59:11;12.50;1.00
41469;DHT22;27206;47.032;15.484;2023-04-24T10:01:37;12.50;1.00
41469;DHT22;27206;47.032;15.484;2023-04-24T10:04:04;12.70;1.00
41469;DHT22;27206;47.032;15.484;2023-04-24T10:06:34;12.70;1.00
41469;DHT22;27206;47.032;15.484;2023-04-24T10:09:01;12.70;1.00
41469;DHT22;27206;47.032;15.484;2023-04-24T10:11:27;12.70;1.00
41469;DHT22;27206;47.032;15.484;2023-04-24T10:13:53;12.70;1.00
41469;DHT22;27206;47.032;15.484;2023-04-24T10:16:20;13.00;1.00
41469;DHT22;27206;47.032;15.484;2023-04-24T10:18:48;13.10;1.00
41469;DHT22;27206;47.032;15.484;2023-04-24T10:21:14;13.40;1.00
41469;DHT22;27206;47.032;15.484;2023-04-24T10:23:41;13.40;1.00
41469;DHT22;27206;47.032;15.484;2023-04-24T10:26:09;13.50;1.00
41469;DHT22;27206;47.032;15.484;2023-04-24T10:28:36;13.30;99.90
41469;DHT22;27206;47.032;15.484;2023-04-24T10:31:02;13.50;99.90
41469;DHT22;27206;47.032;15.484;2023-04-24T10:33:29;13.50;1.00
41469;DHT22;27206;47.032;15.484;2023-04-24T10:35:56;13.80;1.00
41469;DHT22;27206;47.032;15.484;2023-04-24T10:38:25;14.00;1.00
41469;DHT22;27206;47.032;15.484;2023-04-24T10:41:04;13.70;99.90
41469;DHT22;27206;47.032;15.484;2023-04-24T10:43:33;13.70;99.90
41469;DHT22;27206;47.032;15.484;2023-04-24T10:46:03;13.70;99.90
41469;DHT22;27206;47.032;15.484;2023-04-24T10:48:29;13.80;99.90
41469;DHT22;27206;47.032;15.484;2023-04-24T10:50:55;13.90;99.90
41469;DHT22;27206;47.032;15.484;2023-04-24T10:53:23;14.30;99.90
41469;DHT22;27206;47.032;15.484;2023-04-24T10:56:08;14.40;99.90
41469;DHT22;27206;47.032;15.484;2023-04-24T11:01:02;14.40;99.90
41469;DHT22;27206;47.032;15.484;2023-04-24T11:03:30;14.40;99.90
41469;DHT22;27206;47.032;15.484;2023-04-24T11:06:01;14.60;99.90
41469;DHT22;27206;47.032;15.484;2023-04-24T11:11:16;14.60;99.90
41469;DHT22;27206;47.032;15.484;2023-04-24T11:16:27;15.40;99.90
41469;DHT22;27206;47.032;15.484;2023-04-24T11:19:07;15.30;99.90
41469;DHT22;27206;47.032;15.484;2023-04-24T11:21:43;15.00;99.90
41469;DHT22;27206;47.032;15.484;2023-04-24T11:24:26;14.90;99.90
41469;DHT22;27206;47.032;15.484;2023-04-24T11:27:05;15.00;99.90
41469;DHT22;27206;47.032;15.484;2023-04-24T11:29:43;14.70;99.90
41469;DHT22;27206;47.032;15.484;2023-04-24T11:37:26;15.20;99.90
41469;DHT22;27206;47.032;15.484;2023-04-24T11:39:53;15.10;99.90
41469;DHT22;27206;47.032;15.484;2023-04-24T11:42:20;15.20;99.90
41469;DHT22;27206;47.032;15.484;2023-04-24T11:44:46;15.20;99.90
41469;DHT22;27206;47.032;15.484;2023-04-24T11:47:13;15.20;99.90
41469;DHT22;27206;47.032;15.484;2023-04-24T11:49:38;15.10;99.90
41469;DHT22;27206;47.032;15.484;2023-04-24T11:52:04;15.00;99.90
41469;DHT22;27206;47.032;15.484;2023-04-24T11:54:30;15.10;99.90
41469;DHT22;27206;47.032;15.484;2023-04-24T11:56:56;15.20;99.90
41469;DHT22;27206;47.032;15.484;2023-04-24T11:59:22;15.10;99.90
41469;DHT22;27206;47.032;15.484;2023-04-24T12:01:48;15.00;99.90
41469;DHT22;27206;47.032;15.484;2023-04-24T12:04:16;14.70;99.90
41469;DHT22;27206;47.032;15.484;2023-04-24T12:07:02;14.80;99.90
41469;DHT22;27206;47.032;15.484;2023-04-24T12:09:28;14.50;99.90
41469;DHT22;27206;47.032;15.484;2023-04-24T12:11:54;14.60;99.90
41469;DHT22;27206;47.032;15.484;2023-04-24T12:14:23;14.70;99.90
41469;DHT22;27206;47.032;15.484;2023-04-24T12:16:50;14.80;99.90
41469;DHT22;27206;47.032;15.484;2023-04-24T12:19:21;14.60;99.90
41469;DHT22;27206;47.032;15.484;2023-04-24T12:22:00;14.80;99.90
41469;DHT22;27206;47.032;15.484;2023-04-24T12:24:25;14.90;99.90
41469;DHT22;27206;47.032;15.484;2023-04-24T12:26:51;15.00;99.90
41469;DHT22;27206;47.032;15.484;2023-04-24T12:29:22;15.00;99.90
41469;DHT22;27206;47.032;15.484;2023-04-24T12:31:48;14.80;99.90
41469;DHT22;27206;47.032;15.484;2023-04-24T12:34:21;14.90;99.90
41469;DHT22;27206;47.032;15.484;2023-04-24T12:36:47;15.10;99.90
41469;DHT22;27206;47.032;15.484;2023-04-24T12:39:17;15.20;99.90
41469;DHT22;27206;47.032;15.484;2023-04-24T12:41:56;15.40;99.90
41469;DHT22;27206;47.032;15.484;2023-04-24T12:44:33;15.40;99.90
41469;DHT22;27206;47.032;15.484;2023-04-24T12:47:00;15.60;99.90
41469;DHT22;27206;47.032;15.484;2023-04-24T12:49:27;15.70;99.90
41469;DHT22;27206;47.032;15.484;2023-04-24T12:51:53;15.90;99.90
41469;DHT22;27206;47.032;15.484;2023-04-24T12:54:19;15.70;99.90
41469;DHT22;27206;47.032;15.484;2023-04-24T12:56:45;16.10;99.90
41469;DHT22;27206;47.032;15.484;2023-04-24T12:59:11;16.40;99.90
41469;DHT22;27206;47.032;15.484;2023-04-24T13:01:36;16.60;99.90
41469;DHT22;27206;47.032;15.484;2023-04-24T13:04:02;16.90;99.90
41469;DHT22;27206;47.032;15.484;2023-04-24T13:06:28;17.00;99.90
41469;DHT22;27206;47.032;15.484;2023-04-24T13:08:53;17.00;99.90
41469;DHT22;27206;47.032;15.484;2023-04-24T13:11:20;17.00;99.90
41469;DHT22;27206;47.032;15.484;2023-04-24T13:13:47;16.90;99.90
41469;DHT22;27206;47.032;15.484;2023-04-24T13:16:13;16.90;99.90
41469;DHT22;27206;47.032;15.484;2023-04-24T13:18:38;16.70;99.90
41469;DHT22;27206;47.032;15.484;2023-04-24T13:21:04;16.30;99.90
41469;DHT22;27206;47.032;15.484;2023-04-24T13:23:30;16.20;99.90
41469;DHT22;27206;47.032;15.484;2023-04-24T13:25:56;16.00;99.90
41469;DHT22;27206;47.032;15.484;2023-04-24T13:28:24;15.90;99.90
41469;DHT22;27206;47.032;15.484;2023-04-24T13:30:50;15.80;99.90
41469;DHT22;27206;47.032;15.484;2023-04-24T13:33:16;15.70;99.90
41469;DHT22;27206;47.032;15.484;2023-04-24T13:35:42;15.80;99.90
41469;DHT22;27206;47.032;15.484;2023-04-24T13:38:08;15.70;99.90
41469;DHT22;27206;47.032;15.484;2023-04-24T13:40:33;15.70;99.90
41469;DHT22;27206;47.032;15.484;2023-04-24T13:42:59;15.50;99.90
41469;DHT22;27206;47.032;15.484;2023-04-24T13:45:26;15.50;99.90
41469;DHT22;27206;47.032;15.484;2023-04-24T13:47:52;15.40;99.90
41469;DHT22;27206;47.032;15.484;2023-04-24T13:50:19;15.20;99.90
41469;DHT22;27206;47.032;15.484;2023-04-24T13:52:45;15.20;99.90
41469;DHT22;27206;47.032;15.484;2023-04-24T13:55:11;15.20;99.90
41469;DHT22;27206;47.032;15.484;2023-04-24T13:57:36;15.30;99.90
41469;DHT22;27206;47.032;15.484;2023-04-24T14:00:02;15.20;99.90
41469;DHT22;27206;47.032;15.484;2023-04-24T14:02:29;15.20;99.90
41469;DHT22;27206;47.032;15.484;2023-04-24T14:04:55;15.10;99.90
41469;DHT22;27206;47.032;15.484;2023-04-24T14:07:21;15.10;99.90
41469;DHT22;27206;47.032;15.484;2023-04-24T14:09:47;14.90;99.90
41469;DHT22;27206;47.032;15.484;2023-04-24T14:12:12;14.90;99.90
41469;DHT22;27206;47.032;15.484;2023-04-24T14:14:39;14.90;99.90
41469;DHT22;27206;47.032;15.484;2023-04-24T14:17:05;14.90;99.90
41469;DHT22;27206;47.032;15.484;2023-04-24T14:19:31;14.90;99.90
41469;DHT22;27206;47.032;15.484;2023-04-24T14:21:56;14.90;99.90
41469;DHT22;27206;47.032;15.484;2023-04-24T14:24:23;14.90;99.90
41469;DHT22;27206;47.032;15.484;2023-04-24T14:26:49;14.90;99.90
41469;DHT22;27206;47.032;15.484;2023-04-24T14:29:15;15.00;99.90
41469;DHT22;27206;47.032;15.484;2023-04-24T14:31:42;14.80;99.90
41469;DHT22;27206;47.032;15.484;2023-04-24T14:34:08;14.70;99.90
41469;DHT22;27206;47.032;15.484;2023-04-24T14:36:33;14.60;99.90
41469;DHT22;27206;47.032;15.484;2023-04-24T14:39:01;14.60;99.90
41469;DHT22;27206;47.032;15.484;2023-04-24T14:41:31;14.70;99.90
41469;DHT22;27206;47.032;15.484;2023-04-24T14:43:58;14.60;99.90
41469;DHT22;27206;47.032;15.484;2023-04-24T14:46:23;14.60;99.90
41469;DHT22;27206;47.032;15.484;2023-04-24T14:48:49;14.60;99.90
41469;DHT22;27206;47.032;15.484;2023-04-24T14:51:15;14.50;99.90
41469;DHT22;27206;47.032;15.484;2023-04-24T14:53:40;14.60;99.90
41469;DHT22;27206;47.032;15.484;2023-04-24T14:56:06;14.50;99.90
41469;DHT22;27206;47.032;15.484;2023-04-24T14:58:32;14.50;99.90
41469;DHT22;27206;47.032;15.484;2023-04-24T15:00:58;14.40;99.90
41469;DHT22;27206;47.032;15.484;2023-04-24T15:03:23;14.40;99.90
41469;DHT22;27206;47.032;15.484;2023-04-24T15:05:49;14.40;99.90
41469;DHT22;27206;47.032;15.484;2023-04-24T15:08:16;14.30;99.90
41469;DHT22;27206;47.032;15.484;2023-04-24T15:10:42;14.20;99.90
41469;DHT22;27206;47.032;15.484;2023-04-24T15:13:07;14.20;99.90
41469;DHT22;27206;47.032;15.484;2023-04-24T15:15:35;14.20;99.90
41469;DHT22;27206;47.032;15.484;2023-04-24T15:18:02;14.10;99.90
41469;DHT22;27206;47.032;15.484;2023-04-24T15:20:28;14.10;99.90
41469;DHT22;27206;47.032;15.484;2023-04-24T15:22:53;14.00;99.90
41469;DHT22;27206;47.032;15.484;2023-04-24T15:25:19;14.00;99.90
41469;DHT22;27206;47.032;15.484;2023-04-24T15:27:45;14.10;99.90
41469;DHT22;27206;47.032;15.484;2023-04-24T15:30:12;14.10;99.90
41469;DHT22;27206;47.032;15.484;2023-04-24T15:32:38;14.10;99.90
41469;DHT22;27206;47.032;15.484;2023-04-24T15:35:04;14.00;99.90
41469;DHT22;27206;47.032;15.484;2023-04-24T15:37:30;14.00;99.90
41469;DHT22;27206;47.032;15.484;2023-04-24T15:39:56;13.90;99.90
41469;DHT22;27206;47.032;15.484;2023-04-24T15:42:21;13.90;99.90
41469;DHT22;27206;47.032;15.484;2023-04-24T15:44:47;13.90;99.90